createdAt,value
2023-04-01T00:00:30.594Z,151.08
2023-04-01T00:01:30.664Z,151.01
2023-04-01T00:02:30.805Z,153.89
2023-04-01T00:03:30.974Z,156.30
2023-04-01T00:04:31.841Z,160.89
2023-04-01T00:05:31.322Z,164.75
2023-04-01T00:06:31.124Z,167.58
2023-04-01T00:07:31.225Z,167.59
2023-04-01T00:08:31.345Z,162.14
2023-04-01T00:09:31.417Z,156.07
2023-04-01T00:10:31.557Z,156.18
2023-04-01T00:11:31.545Z,157.54
2023-04-01T00:12:31.602Z,158.13
2023-04-01T00:13:31.673Z,160.85
2023-04-01T00:14:31.715Z,164.39
2023-04-01T00:15:31.887Z,160.55
2023-04-01T00:16:31.958Z,161.15
2023-04-01T00:17:32.034Z,161.00
2023-04-01T00:18:32.153Z,161.07
2023-04-01T00:19:32.205Z,161.84
2023-04-01T00:20:32.272Z,163.20
2023-04-01T00:21:32.392Z,164.85
2023-04-01T00:22:32.450Z,165.24
2023-04-01T00:23:32.517Z,163.33
2023-04-01T00:24:32.621Z,163.87
2023-04-01T00:25:33.067Z,163.79
2023-04-01T00:26:32.791Z,158.70
2023-04-01T00:27:32.940Z,154.04
2023-04-01T00:28:32.998Z,140.89
2023-04-01T00:29:33.095Z,129.60
2023-04-01T00:30:33.174Z,122.83
2023-04-01T00:31:33.303Z,117.26
2023-04-01T00:32:33.367Z,113.90
2023-04-01T00:33:33.457Z,114.66
2023-04-01T00:34:33.592Z,116.18
2023-04-01T00:35:33.930Z,116.43
2023-04-01T00:36:33.797Z,116.40
2023-04-01T00:37:33.786Z,120.52
2023-04-01T00:38:33.914Z,119.00
2023-04-01T00:39:33.875Z,123.87
2023-04-01T00:40:33.926Z,129.47
2023-04-01T00:41:33.984Z,137.68
2023-04-01T00:42:34.047Z,144.31
2023-04-01T00:43:34.102Z,148.94
2023-04-01T00:44:34.172Z,152.73
2023-04-01T00:45:34.374Z,156.04
2023-04-01T00:46:34.292Z,157.68
2023-04-01T00:47:34.344Z,158.70
2023-04-01T00:48:34.424Z,160.38
2023-04-01T00:49:34.505Z,161.57
2023-04-01T00:50:34.576Z,162.11
2023-04-01T00:51:34.638Z,159.67
2023-04-01T00:52:34.767Z,157.48
2023-04-01T00:53:34.808Z,158.28
2023-04-01T00:54:34.896Z,154.93
2023-04-01T00:55:34.930Z,153.34
2023-04-01T00:56:35.023Z,151.87
2023-04-01T00:57:35.136Z,151.06
2023-04-01T00:58:35.313Z,153.00
2023-04-01T00:59:35.358Z,155.39
2023-04-01T01:00:35.465Z,168.69
2023-04-01T01:01:35.519Z,187.74
2023-04-01T01:02:35.649Z,187.87
2023-04-01T01:03:35.591Z,188.37
2023-04-01T01:04:35.655Z,188.85
2023-04-01T01:05:48.139Z,188.51
2023-04-01T01:06:36.760Z,187.78
2023-04-01T01:07:35.800Z,185.68
2023-04-01T01:08:35.836Z,178.80
2023-04-01T01:09:35.903Z,166.72
2023-04-01T01:10:35.948Z,163.71
2023-04-01T01:11:42.543Z,163.53
2023-04-01T01:12:37.050Z,163.61
2023-04-01T01:13:36.079Z,163.80
2023-04-01T01:14:36.126Z,164.35
2023-04-01T01:15:36.151Z,163.71
2023-04-01T01:16:36.257Z,164.66
2023-04-01T01:17:36.257Z,167.57
2023-04-01T01:18:36.277Z,171.20
2023-04-01T01:19:36.327Z,178.12
2023-04-01T01:20:36.368Z,177.06
2023-04-01T01:21:36.412Z,176.88
2023-04-01T01:22:36.448Z,175.34
2023-04-01T01:23:36.511Z,174.37
2023-04-01T01:24:36.541Z,172.70
2023-04-01T01:25:36.580Z,172.51
2023-04-01T01:26:36.617Z,167.68
2023-04-01T01:27:36.662Z,163.91
2023-04-01T01:28:36.802Z,159.30
2023-04-01T01:29:36.810Z,150.38
2023-04-01T01:30:36.908Z,144.60
2023-04-01T01:31:36.968Z,143.15
2023-04-01T01:32:37.203Z,143.48
2023-04-01T01:33:37.200Z,145.89
2023-04-01T01:34:37.210Z,148.96
2023-04-01T01:35:37.273Z,148.68
2023-04-01T01:36:37.323Z,151.04
2023-04-01T01:37:37.402Z,148.81
2023-04-01T01:38:37.472Z,144.76
2023-04-01T01:39:37.561Z,142.62
2023-04-01T01:40:37.641Z,140.04
2023-04-01T01:41:37.709Z,139.98
2023-04-01T01:42:37.777Z,141.71
2023-04-01T01:43:37.851Z,145.23
2023-04-01T01:44:37.935Z,150.03
2023-04-01T01:45:37.971Z,153.97
2023-04-01T01:46:38.105Z,157.04
2023-04-01T01:47:38.165Z,158.05
2023-04-01T01:48:38.189Z,152.54
2023-04-01T01:49:38.320Z,152.63
2023-04-01T01:50:38.381Z,156.64
2023-04-01T01:51:38.472Z,156.16
2023-04-01T01:52:38.565Z,158.48
2023-04-01T01:53:38.644Z,159.07
2023-04-01T01:54:38.719Z,161.55
2023-04-01T01:55:38.829Z,164.63
2023-04-01T01:56:38.840Z,165.43
2023-04-01T01:57:39.044Z,166.99
2023-04-01T01:58:39.070Z,167.47
2023-04-01T01:59:39.150Z,170.40
2023-04-01T02:00:39.225Z,168.95
2023-04-01T02:01:39.367Z,167.29
2023-04-01T02:02:39.364Z,169.68
2023-04-01T02:03:39.502Z,173.35
2023-04-01T02:04:39.589Z,176.85
2023-04-01T02:05:39.656Z,176.06
2023-04-01T02:06:39.732Z,174.08
2023-04-01T02:07:39.794Z,172.39
2023-04-01T02:08:39.931Z,168.87
2023-04-01T02:09:39.932Z,165.46
2023-04-01T02:10:40.045Z,164.38
2023-04-01T02:11:40.093Z,163.99
2023-04-01T02:12:40.168Z,163.92
2023-04-01T02:13:40.230Z,163.95
2023-04-01T02:14:40.283Z,162.76
2023-04-01T02:15:40.860Z,163.79
2023-04-01T02:16:40.397Z,168.32
2023-04-01T02:17:40.457Z,173.76
2023-04-01T02:18:40.538Z,178.38
2023-04-01T02:19:40.607Z,177.47
2023-04-01T02:20:40.663Z,177.99
2023-04-01T02:21:40.751Z,181.24
2023-04-01T02:22:40.859Z,181.19
2023-04-01T02:23:40.942Z,178.64
2023-04-01T02:24:41.044Z,178.84
2023-04-01T02:25:41.133Z,178.07
2023-04-01T02:26:41.218Z,176.69
2023-04-01T02:27:41.268Z,176.86
2023-04-01T02:28:41.286Z,177.02
2023-04-01T02:29:41.325Z,175.22
2023-04-01T02:30:41.420Z,168.28
2023-04-01T02:31:41.485Z,171.19
2023-04-01T02:32:41.473Z,176.15
2023-04-01T02:33:41.526Z,179.94
2023-04-01T02:34:41.603Z,183.97
2023-04-01T02:35:41.642Z,183.49
2023-04-01T02:36:41.675Z,183.53
2023-04-01T02:37:41.712Z,185.34
2023-04-01T02:38:41.767Z,177.15
2023-04-01T02:39:41.898Z,173.09
2023-04-01T02:40:41.967Z,171.01
2023-04-01T02:41:42.082Z,178.29
2023-04-01T02:42:42.254Z,186.46
2023-04-01T02:43:42.319Z,193.04
2023-04-01T02:44:42.408Z,197.09
2023-04-01T02:45:42.521Z,193.64
2023-04-01T02:46:42.666Z,185.28
2023-04-01T02:47:42.705Z,180.09
2023-04-01T02:48:42.825Z,177.60
2023-04-01T02:49:42.863Z,179.94
2023-04-01T02:50:43.046Z,180.08
2023-04-01T02:51:43.144Z,179.88
2023-04-01T02:52:43.220Z,181.35
2023-04-01T02:53:43.301Z,184.36
2023-04-01T02:54:43.401Z,190.75
2023-04-01T02:55:43.532Z,194.46
2023-04-01T02:56:43.636Z,196.99
2023-04-01T02:57:43.728Z,196.44
2023-04-01T02:58:43.859Z,195.16
2023-04-01T02:59:43.926Z,195.21
2023-04-01T03:00:43.988Z,192.73
2023-04-01T03:01:44.859Z,186.50
2023-04-01T03:02:44.124Z,182.45
2023-04-01T03:03:45.162Z,180.93
2023-04-01T03:04:44.121Z,181.50
2023-04-01T03:05:44.179Z,183.09
2023-04-01T03:06:44.227Z,185.57
2023-04-01T03:07:44.292Z,191.74
2023-04-01T03:08:44.339Z,191.94
2023-04-01T03:09:44.409Z,193.09
2023-04-01T03:10:44.418Z,194.62
2023-04-01T03:11:44.458Z,194.61
2023-04-01T03:12:44.529Z,196.30
2023-04-01T03:13:44.545Z,197.11
2023-04-01T03:14:44.593Z,196.61
2023-04-01T03:15:44.694Z,195.27
2023-04-01T03:16:44.715Z,195.95
2023-04-01T03:17:44.762Z,196.80
2023-04-01T03:18:44.780Z,195.05
2023-04-01T03:19:45.014Z,195.10
2023-04-01T03:20:45.800Z,194.17
2023-04-01T03:21:44.998Z,192.31
2023-04-01T03:22:45.131Z,192.00
2023-04-01T03:23:45.188Z,195.19
2023-04-01T03:24:45.294Z,200.58
2023-04-01T03:25:45.413Z,202.10
2023-04-01T03:26:45.611Z,201.63
2023-04-01T03:27:45.586Z,202.04
2023-04-01T03:28:45.631Z,203.05
2023-04-01T03:29:45.744Z,203.73
2023-04-01T03:30:45.803Z,201.38
2023-04-01T03:31:45.907Z,198.74
2023-04-01T03:32:46.897Z,199.59
2023-04-01T03:33:45.928Z,199.46
2023-04-01T03:34:46.812Z,196.97
2023-04-01T03:35:46.022Z,194.34
2023-04-01T03:36:46.201Z,196.32
2023-04-01T03:37:46.126Z,197.47
2023-04-01T03:38:46.230Z,196.86
2023-04-01T03:39:46.338Z,193.36
2023-04-01T03:40:46.495Z,193.70
2023-04-01T03:41:46.478Z,195.91
2023-04-01T03:42:46.566Z,195.43
2023-04-01T03:43:46.707Z,198.02
2023-04-01T03:44:46.752Z,199.98
2023-04-01T03:45:46.923Z,201.30
2023-04-01T03:46:46.991Z,202.18
2023-04-01T03:47:47.080Z,202.52
2023-04-01T03:48:47.081Z,202.28
2023-04-01T03:49:47.206Z,201.16
2023-04-01T03:50:47.272Z,196.25
2023-04-01T03:51:47.390Z,190.36
2023-04-01T03:52:47.464Z,185.33
2023-04-01T03:53:47.580Z,179.95
2023-04-01T03:54:47.656Z,176.84
2023-04-01T03:55:47.781Z,173.73
2023-04-01T03:56:47.871Z,169.69
2023-04-01T03:57:47.964Z,167.01
2023-04-01T03:58:48.028Z,178.22
2023-04-01T03:59:48.144Z,189.65
2023-04-01T04:00:48.222Z,193.90
2023-04-01T04:01:48.285Z,198.22
2023-04-01T04:02:48.511Z,200.49
2023-04-01T04:03:48.561Z,204.87
2023-04-01T04:04:48.640Z,206.80
2023-04-01T04:05:48.670Z,206.90
2023-04-01T04:06:48.749Z,207.25
2023-04-01T04:07:48.845Z,209.68
2023-04-01T04:08:48.942Z,212.41
2023-04-01T04:09:49.050Z,212.14
2023-04-01T04:10:49.134Z,214.01
2023-04-01T04:11:49.269Z,214.21
2023-04-01T04:12:49.372Z,215.26
2023-04-01T04:13:49.502Z,215.42
2023-04-01T04:14:50.328Z,215.86
2023-04-01T04:15:49.701Z,214.27
2023-04-01T04:16:50.301Z,214.09
2023-04-01T04:17:49.905Z,213.88
2023-04-01T04:18:49.930Z,213.35
2023-04-01T04:19:50.005Z,212.30
2023-04-01T04:20:50.088Z,206.65
2023-04-01T04:21:50.172Z,202.40
2023-04-01T04:22:50.328Z,198.78
2023-04-01T04:23:50.438Z,207.82
2023-04-01T04:24:51.322Z,211.39
2023-04-01T04:25:50.643Z,207.84
2023-04-01T04:26:50.730Z,204.69
2023-04-01T04:27:50.784Z,204.05
2023-04-01T04:28:50.854Z,199.75
2023-04-01T04:29:50.970Z,203.86
2023-04-01T04:30:51.047Z,210.66
2023-04-01T04:31:51.182Z,219.10
2023-04-01T04:32:51.248Z,230.75
2023-04-01T04:33:51.270Z,240.07
2023-04-01T04:34:51.316Z,255.41
2023-04-01T04:35:51.393Z,251.38
2023-04-01T04:36:51.470Z,249.99
2023-04-01T04:37:51.526Z,250.00
2023-04-01T04:38:51.681Z,250.00
2023-04-01T04:39:51.677Z,250.11
2023-04-01T04:40:51.743Z,246.68
2023-04-01T04:41:52.441Z,238.77
2023-04-01T04:42:51.968Z,234.31
2023-04-01T04:43:52.093Z,228.98
2023-04-01T04:44:52.166Z,223.02
2023-04-01T04:45:52.223Z,218.52
2023-04-01T04:46:52.396Z,219.47
2023-04-01T04:47:53.348Z,219.93
2023-04-01T04:48:52.498Z,213.75
2023-04-01T04:49:52.581Z,212.05
2023-04-01T04:50:52.700Z,210.91
2023-04-01T04:51:52.803Z,212.89
2023-04-01T04:52:52.876Z,210.37
2023-04-01T04:53:53.369Z,210.72
2023-04-01T04:54:53.041Z,212.03
2023-04-01T04:55:53.126Z,215.21
2023-04-01T04:56:53.383Z,218.30
2023-04-01T04:57:53.258Z,218.91
2023-04-01T04:58:53.344Z,222.80
2023-04-01T04:59:53.421Z,223.61
2023-04-01T05:00:53.516Z,225.54
2023-04-01T05:01:53.590Z,222.09
2023-04-01T05:02:53.817Z,219.39
2023-04-01T05:03:53.796Z,219.98
2023-04-01T05:04:54.320Z,217.13
2023-04-01T05:05:54.812Z,217.41
2023-04-01T05:06:53.948Z,218.93
2023-04-01T05:07:54.053Z,220.72
2023-04-01T05:08:54.208Z,221.58
2023-04-01T05:09:54.369Z,221.36
2023-04-01T05:10:54.320Z,221.18
2023-04-01T05:11:54.370Z,221.17
2023-04-01T05:12:54.456Z,220.88
2023-04-01T05:13:55.316Z,221.55
2023-04-01T05:14:54.627Z,228.95
2023-04-01T05:15:54.681Z,225.51
2023-04-01T05:16:54.873Z,236.35
2023-04-01T05:17:55.002Z,243.31
2023-04-01T05:18:54.969Z,241.70
2023-04-01T05:19:55.056Z,243.30
2023-04-01T05:20:55.156Z,243.49
2023-04-01T05:21:55.270Z,245.28
2023-04-01T05:22:55.361Z,247.35
2023-04-01T05:23:55.433Z,248.36
2023-04-01T05:24:55.527Z,242.59
2023-04-01T05:25:55.599Z,239.85
2023-04-01T05:26:56.969Z,237.77
2023-04-01T05:27:56.319Z,238.17
2023-04-01T05:28:55.896Z,238.56
2023-04-01T05:29:55.992Z,236.85
2023-04-01T05:30:56.094Z,236.01
2023-04-01T05:31:56.125Z,236.19
2023-04-01T05:32:56.249Z,236.66
2023-04-01T05:33:56.257Z,236.75
2023-04-01T05:34:56.276Z,236.93
2023-04-01T05:35:56.333Z,237.41
2023-04-01T05:36:56.351Z,238.51
2023-04-01T05:37:56.389Z,240.06
2023-04-01T05:38:56.515Z,241.59
2023-04-01T05:39:56.441Z,244.39
2023-04-01T05:40:56.477Z,245.98
2023-04-01T05:41:56.497Z,246.90
2023-04-01T05:42:56.556Z,250.00
2023-04-01T05:43:56.597Z,244.76
2023-04-01T05:44:56.628Z,240.00
2023-04-01T05:45:56.742Z,230.58
2023-04-01T05:46:56.771Z,231.32
2023-04-01T05:47:56.925Z,236.72
2023-04-01T05:48:56.968Z,236.73
2023-04-01T05:49:57.057Z,238.76
2023-04-01T05:50:57.135Z,241.19
2023-04-01T05:51:57.224Z,243.02
2023-04-01T05:52:57.321Z,245.28
2023-04-01T05:53:57.363Z,250.85
2023-04-01T05:54:57.417Z,255.66
2023-04-01T05:55:57.468Z,249.26
2023-04-01T05:56:57.588Z,250.15
2023-04-01T05:57:57.633Z,246.44
2023-04-01T05:58:57.704Z,245.94
2023-04-01T05:59:57.766Z,243.96
2023-04-01T06:01:08.768Z,241.63
2023-04-01T06:01:59.842Z,241.65
2023-04-01T06:02:57.933Z,240.71
2023-04-01T06:03:57.928Z,240.01
2023-04-01T06:04:57.985Z,238.67
2023-04-01T06:05:57.906Z,237.70
2023-04-01T06:06:57.934Z,236.59
2023-04-01T06:07:58.018Z,237.43
2023-04-01T06:08:58.093Z,236.81
2023-04-01T06:09:58.172Z,238.66
2023-04-01T06:10:58.262Z,237.42
2023-04-01T06:11:58.387Z,237.12
2023-04-01T06:12:58.405Z,230.98
2023-04-01T06:13:58.483Z,227.34
2023-04-01T06:14:58.519Z,223.55
2023-04-01T06:15:58.586Z,226.13
2023-04-01T06:16:58.590Z,229.21
2023-04-01T06:17:58.764Z,227.85
2023-04-01T06:18:58.762Z,225.79
2023-04-01T06:19:58.825Z,224.02
2023-04-01T06:20:58.913Z,223.31
2023-04-01T06:21:58.971Z,223.09
2023-04-01T06:22:59.051Z,223.57
2023-04-01T06:23:59.094Z,222.03
2023-04-01T06:24:59.819Z,219.48
2023-04-01T06:25:59.229Z,222.81
2023-04-01T06:26:59.230Z,224.87
2023-04-01T06:27:59.275Z,223.77
2023-04-01T06:28:59.320Z,223.63
2023-04-01T06:29:59.330Z,219.74
2023-04-01T06:30:59.379Z,214.66
2023-04-01T06:31:59.394Z,212.28
2023-04-01T06:32:59.445Z,211.61
2023-04-01T06:33:59.410Z,213.79
2023-04-01T06:34:59.423Z,216.21
2023-04-01T06:35:59.529Z,222.16
2023-04-01T06:36:59.502Z,226.43
2023-04-01T06:37:59.493Z,226.50
2023-04-01T06:38:59.495Z,226.03
2023-04-01T06:39:59.545Z,225.30
2023-04-01T06:40:59.537Z,222.65
2023-04-01T06:41:59.568Z,222.81
2023-04-01T06:42:59.652Z,223.27
2023-04-01T06:43:59.744Z,222.98
2023-04-01T06:44:59.754Z,223.11
2023-04-01T06:46:00.840Z,219.49
2023-04-01T06:47:00.837Z,212.86
2023-04-01T06:47:59.961Z,212.55
2023-04-01T06:48:59.965Z,221.03
2023-04-01T06:50:00.008Z,213.22
2023-04-01T06:51:00.079Z,197.65
2023-04-01T06:52:00.129Z,193.90
2023-04-01T06:53:00.166Z,204.92
2023-04-01T06:54:00.183Z,212.91
2023-04-01T06:55:00.260Z,214.49
2023-04-01T06:56:00.298Z,211.71
2023-04-01T06:57:00.350Z,209.09
2023-04-01T06:58:00.416Z,206.28
2023-04-01T06:59:00.530Z,217.97
2023-04-01T07:00:00.420Z,227.25
2023-04-01T07:01:00.467Z,228.21
2023-04-01T07:02:00.513Z,213.39
2023-04-01T07:03:00.626Z,204.68
2023-04-01T07:04:00.694Z,202.25
2023-04-01T07:05:00.816Z,205.14
2023-04-01T07:06:00.698Z,209.38
2023-04-01T07:07:00.796Z,211.14
2023-04-01T07:08:00.827Z,216.20
2023-04-01T07:09:01.791Z,219.01
2023-04-01T07:10:00.869Z,212.90
2023-04-01T07:11:00.889Z,201.86
2023-04-01T07:12:00.888Z,189.00
2023-04-01T07:13:00.896Z,181.62
2023-04-01T07:14:00.963Z,184.55
2023-04-01T07:15:00.914Z,167.03
2023-04-01T07:16:00.880Z,149.05
2023-04-01T07:17:00.958Z,147.71
2023-04-01T07:18:00.895Z,147.74
2023-04-01T07:19:00.871Z,149.35
2023-04-01T07:20:00.901Z,152.84
2023-04-01T07:21:00.866Z,153.99
2023-04-01T07:22:00.853Z,143.83
2023-04-01T07:23:00.852Z,139.91
2023-04-01T07:24:00.863Z,141.29
2023-04-01T07:25:00.855Z,151.88
2023-04-01T07:26:00.880Z,163.97
2023-04-01T07:27:00.849Z,169.56
2023-04-01T07:28:00.842Z,182.27
2023-04-01T07:29:00.840Z,187.96
2023-04-01T07:30:00.837Z,184.18
2023-04-01T07:31:00.845Z,168.32
2023-04-01T07:32:00.813Z,180.03
2023-04-01T07:33:00.814Z,190.67
2023-04-01T07:34:00.838Z,195.42
2023-04-01T07:35:00.853Z,204.22
2023-04-01T07:36:00.854Z,196.58
2023-04-01T07:37:00.785Z,184.29
2023-04-01T07:38:00.803Z,176.49
2023-04-01T07:39:00.805Z,179.89
2023-04-01T07:40:00.765Z,181.72
2023-04-01T07:41:00.765Z,159.38
2023-04-01T07:42:00.764Z,171.07
2023-04-01T07:43:00.819Z,162.81
2023-04-01T07:44:00.856Z,152.97
2023-04-01T07:45:00.891Z,152.39
2023-04-01T07:46:00.973Z,142.82
2023-04-01T07:47:00.968Z,139.64
2023-04-01T07:48:01.004Z,129.60
2023-04-01T07:49:00.967Z,131.90
2023-04-01T07:50:01.011Z,133.45
2023-04-01T07:51:00.998Z,95.31
2023-04-01T07:52:00.991Z,77.98
2023-04-01T07:53:00.975Z,57.58
2023-04-01T07:54:00.945Z,35.81
2023-04-01T07:55:00.912Z,26.92
2023-04-01T07:56:00.925Z,28.92
2023-04-01T07:57:00.958Z,27.08
2023-04-01T07:58:00.957Z,25.00
2023-04-01T07:59:01.342Z,20.86
2023-04-01T08:00:00.904Z,11.50
2023-04-01T08:01:00.868Z,12.62
2023-04-01T08:02:00.868Z,13.65
2023-04-01T08:03:00.964Z,14.31
2023-04-01T08:04:01.085Z,16.14
2023-04-01T08:05:00.947Z,14.62
2023-04-01T08:06:00.957Z,25.19
2023-04-01T08:07:00.872Z,37.49
2023-04-01T08:08:00.874Z,15.09
2023-04-01T08:09:00.846Z,33.37
2023-04-01T08:10:00.882Z,35.03
2023-04-01T08:11:00.906Z,29.26
2023-04-01T08:12:00.846Z,0.00
2023-04-01T08:13:00.885Z,0.00
2023-04-01T08:14:00.889Z,0.00
2023-04-01T08:15:00.878Z,0.00
2023-04-01T08:16:00.898Z,0.00
2023-04-01T08:17:00.805Z,0.00
2023-04-01T08:18:00.806Z,0.00
2023-04-01T08:19:00.750Z,3.33
2023-04-01T08:20:00.763Z,20.25
2023-04-01T08:21:00.724Z,26.75
2023-04-01T08:22:00.721Z,25.83
2023-04-01T08:23:00.648Z,25.38
2023-04-01T08:24:00.652Z,22.10
2023-04-01T08:25:00.572Z,24.75
2023-04-01T08:26:00.566Z,25.00
2023-04-01T08:27:00.584Z,31.43
2023-04-01T08:28:00.560Z,29.78
2023-04-01T08:29:00.614Z,25.00
2023-04-01T08:30:00.570Z,28.28
2023-04-01T08:31:00.559Z,41.18
2023-04-01T08:32:01.401Z,31.42
2023-04-01T08:33:00.599Z,26.76
2023-04-01T08:34:00.564Z,38.38
2023-04-01T08:35:00.502Z,36.32
2023-04-01T08:36:00.582Z,36.33
2023-04-01T08:37:00.503Z,33.73
2023-04-01T08:38:00.459Z,18.85
2023-04-01T08:39:00.425Z,16.27
2023-04-01T08:40:00.393Z,10.78
2023-04-01T08:41:00.310Z,18.92
2023-04-01T08:42:00.252Z,12.19
2023-04-01T08:43:00.200Z,8.98
2023-04-01T08:44:00.215Z,11.28
2023-04-01T08:45:00.082Z,20.79
2023-04-01T08:46:00.084Z,27.07
2023-04-01T08:47:00.011Z,21.93
2023-04-01T08:47:59.951Z,21.44
2023-04-01T08:48:59.855Z,21.16
2023-04-01T08:49:59.870Z,24.19
2023-04-01T08:50:59.864Z,21.19
2023-04-01T08:51:59.834Z,23.36
2023-04-01T08:52:59.809Z,29.10
2023-04-01T08:53:59.803Z,23.88
2023-04-01T08:54:59.818Z,25.00
2023-04-01T08:55:59.778Z,25.43
2023-04-01T08:56:59.816Z,28.50
2023-04-01T08:57:59.676Z,31.14
2023-04-01T08:58:59.672Z,32.84
2023-04-01T08:59:59.643Z,38.11
2023-04-01T09:00:59.623Z,47.16
2023-04-01T09:01:59.638Z,46.98
2023-04-01T09:02:59.708Z,45.23
2023-04-01T09:03:59.743Z,52.90
2023-04-01T09:04:59.681Z,56.55
2023-04-01T09:05:59.658Z,60.52
2023-04-01T09:06:59.650Z,62.23
2023-04-01T09:07:59.638Z,54.13
2023-04-01T09:08:59.604Z,57.70
2023-04-01T09:09:59.619Z,54.60
2023-04-01T09:10:59.622Z,55.66
2023-04-01T09:11:59.562Z,55.68
2023-04-01T09:12:59.477Z,54.50
2023-04-01T09:13:59.466Z,55.53
2023-04-01T09:14:59.477Z,51.84
2023-04-01T09:16:00.378Z,50.38
2023-04-01T09:16:59.396Z,52.20
2023-04-01T09:17:59.407Z,52.07
2023-04-01T09:18:59.358Z,49.67
2023-04-01T09:19:59.353Z,44.06
2023-04-01T09:20:59.307Z,45.58
2023-04-01T09:21:59.294Z,53.65
2023-04-01T09:22:59.261Z,50.55
2023-04-01T09:23:59.237Z,44.84
2023-04-01T09:24:59.370Z,42.11
2023-04-01T09:25:59.863Z,47.46
2023-04-01T09:26:59.787Z,41.93
2023-04-01T09:27:59.063Z,44.47
2023-04-01T09:28:59.050Z,43.24
2023-04-01T09:29:59.048Z,43.07
2023-04-01T09:30:59.891Z,34.90
2023-04-01T09:31:58.969Z,33.87
2023-04-01T09:32:58.982Z,37.92
2023-04-01T09:33:59.378Z,46.76
2023-04-01T09:34:58.839Z,44.99
2023-04-01T09:35:58.819Z,38.68
2023-04-01T09:37:00.395Z,34.30
2023-04-01T09:37:58.789Z,33.06
2023-04-01T09:38:59.369Z,34.31
2023-04-01T09:39:58.702Z,43.49
2023-04-01T09:40:58.636Z,47.37
2023-04-01T09:41:58.601Z,44.71
2023-04-01T09:42:58.564Z,38.83
2023-04-01T09:43:59.365Z,30.68
2023-04-01T09:44:58.613Z,26.61
2023-04-01T09:45:58.629Z,29.40
2023-04-01T09:46:59.360Z,27.43
2023-04-01T09:47:58.512Z,28.65
2023-04-01T09:48:59.361Z,28.88
2023-04-01T09:49:58.353Z,28.99
2023-04-01T09:50:58.866Z,30.53
2023-04-01T09:51:58.879Z,29.27
2023-04-01T09:52:58.333Z,32.59
2023-04-01T09:53:58.967Z,40.70
2023-04-01T09:54:58.285Z,52.48
2023-04-01T09:55:58.930Z,52.63
2023-04-01T09:56:58.290Z,45.22
2023-04-01T09:57:58.243Z,44.91
2023-04-01T09:58:58.207Z,34.58
2023-04-01T09:59:58.223Z,34.46
2023-04-01T10:00:59.880Z,30.32
2023-04-01T10:01:58.183Z,31.33
2023-04-01T10:02:58.185Z,37.19
2023-04-01T10:03:58.108Z,37.03
2023-04-01T10:04:58.116Z,35.38
2023-04-01T10:05:58.122Z,34.03
2023-04-01T10:06:58.088Z,31.39
2023-04-01T10:07:58.872Z,28.27
2023-04-01T10:08:58.024Z,28.38
2023-04-01T10:09:58.369Z,31.62
2023-04-01T10:10:58.029Z,37.30
2023-04-01T10:11:58.029Z,33.24
2023-04-01T10:12:58.001Z,33.46
2023-04-01T10:13:58.031Z,28.57
2023-04-01T10:14:58.091Z,26.39
2023-04-01T10:16:02.896Z,28.20
2023-04-01T10:16:58.884Z,23.10
2023-04-01T10:17:57.883Z,24.26
2023-04-01T10:18:58.371Z,23.19
2023-04-01T10:19:57.735Z,21.72
2023-04-01T10:20:57.644Z,9.53
2023-04-01T10:21:57.634Z,15.74
2023-04-01T10:22:57.531Z,23.12
2023-04-01T10:23:57.541Z,25.00
2023-04-01T10:24:58.359Z,25.28
2023-04-01T10:25:57.401Z,27.69
2023-04-01T10:26:57.313Z,27.61
2023-04-01T10:27:57.878Z,24.48
2023-04-01T10:28:57.229Z,21.26
2023-04-01T10:29:57.204Z,19.82
2023-04-01T10:30:57.247Z,18.94
2023-04-01T10:31:57.219Z,17.53
2023-04-01T10:32:58.897Z,22.01
2023-04-01T10:33:57.136Z,24.54
2023-04-01T10:34:57.035Z,25.00
2023-04-01T10:35:57.028Z,26.41
2023-04-01T10:36:57.873Z,26.84
2023-04-01T10:37:56.885Z,28.35
2023-04-01T10:38:56.871Z,28.52
2023-04-01T10:39:56.824Z,26.25
2023-04-01T10:40:56.832Z,24.98
2023-04-01T10:41:56.703Z,24.51
2023-04-01T10:42:56.642Z,24.53
2023-04-01T10:43:56.868Z,20.92
2023-04-01T10:44:56.611Z,20.31
2023-04-01T10:45:56.593Z,19.24
2023-04-01T10:46:57.415Z,20.30
2023-04-01T10:47:56.541Z,24.29
2023-04-01T10:48:56.468Z,29.27
2023-04-01T10:49:56.424Z,30.23
2023-04-01T10:50:56.981Z,32.44
2023-04-01T10:51:56.439Z,28.43
2023-04-01T10:52:56.426Z,32.86
2023-04-01T10:53:56.384Z,33.73
2023-04-01T10:54:56.418Z,35.45
2023-04-01T10:55:56.306Z,37.09
2023-04-01T10:56:56.297Z,34.69
2023-04-01T10:57:56.190Z,30.53
2023-04-01T10:58:56.159Z,28.61
2023-04-01T10:59:56.119Z,27.51
2023-04-01T11:00:56.225Z,30.34
2023-04-01T11:02:10.178Z,34.11
2023-04-01T11:02:57.091Z,32.18
2023-04-01T11:03:56.000Z,25.52
2023-04-01T11:04:55.856Z,23.84
2023-04-01T11:05:55.770Z,20.04
2023-04-01T11:06:55.666Z,16.42
2023-04-01T11:08:05.333Z,20.44
2023-04-01T11:08:56.549Z,20.62
2023-04-01T11:09:55.446Z,20.49
2023-04-01T11:10:55.415Z,15.11
2023-04-01T11:11:55.264Z,9.30
2023-04-01T11:12:55.184Z,16.93
2023-04-01T11:13:57.868Z,18.86
2023-04-01T11:14:55.022Z,18.81
2023-04-01T11:15:55.078Z,25.28
2023-04-01T11:16:54.821Z,21.89
2023-04-01T11:17:54.866Z,24.21
2023-04-01T11:18:54.644Z,26.13
2023-04-01T11:19:54.706Z,26.02
2023-04-01T11:20:54.476Z,28.29
2023-04-01T11:21:54.395Z,38.65
2023-04-01T11:22:54.267Z,41.90
2023-04-01T11:24:04.547Z,39.36
2023-04-01T11:24:55.369Z,37.28
2023-04-01T11:25:54.237Z,36.81
2023-04-01T11:26:54.281Z,39.67
2023-04-01T11:27:54.152Z,37.52
2023-04-01T11:28:54.147Z,34.35
2023-04-01T11:30:00.201Z,31.24
2023-04-01T11:30:54.858Z,31.29
2023-04-01T11:31:54.340Z,30.17
2023-04-01T11:32:53.708Z,29.43
2023-04-01T11:33:53.533Z,28.22
2023-04-01T11:34:53.503Z,29.70
2023-04-01T11:35:53.365Z,32.71
2023-04-01T11:36:53.243Z,37.87
2023-04-01T11:37:53.113Z,43.53
2023-04-01T11:38:53.052Z,46.66
2023-04-01T11:39:53.019Z,36.21
2023-04-01T11:40:53.026Z,34.12
2023-04-01T11:41:52.961Z,33.69
2023-04-01T11:42:52.924Z,34.04
2023-04-01T11:43:52.874Z,36.62
2023-04-01T11:44:52.819Z,37.15
2023-04-01T11:45:52.810Z,39.01
2023-04-01T11:46:52.701Z,39.29
2023-04-01T11:47:52.692Z,40.18
2023-04-01T11:48:52.552Z,42.86
2023-04-01T11:49:52.483Z,50.46
2023-04-01T11:50:52.924Z,50.38
2023-04-01T11:51:52.382Z,53.04
2023-04-01T11:52:52.315Z,55.54
2023-04-01T11:53:52.232Z,51.55
2023-04-01T11:54:52.184Z,47.06
2023-04-01T11:55:52.213Z,39.29
2023-04-01T11:56:52.150Z,39.02
2023-04-01T11:57:51.988Z,41.95
2023-04-01T11:58:51.902Z,37.50
2023-04-01T11:59:51.836Z,40.44
2023-04-01T12:00:51.787Z,37.47
2023-04-01T12:01:51.758Z,35.53
2023-04-01T12:02:51.786Z,33.42
2023-04-01T12:03:51.659Z,24.69
2023-04-01T12:04:51.563Z,21.55
2023-04-01T12:05:51.437Z,27.47
2023-04-01T12:06:51.399Z,26.51
2023-04-01T12:07:51.337Z,24.19
2023-04-01T12:08:51.286Z,26.27
2023-04-01T12:09:51.153Z,27.64
2023-04-01T12:10:51.105Z,27.11
2023-04-01T12:11:51.059Z,27.18
2023-04-01T12:13:00.738Z,28.22
2023-04-01T12:13:51.898Z,27.90
2023-04-01T12:14:50.799Z,28.44
2023-04-01T12:15:50.677Z,28.73
2023-04-01T12:16:50.620Z,32.42
2023-04-01T12:17:50.508Z,36.87
2023-04-01T12:18:50.437Z,40.98
2023-04-01T12:19:50.284Z,34.39
2023-04-01T12:20:50.901Z,41.49
2023-04-01T12:21:50.094Z,35.49
2023-04-01T12:22:50.007Z,38.03
2023-04-01T12:23:49.862Z,39.62
2023-04-01T12:24:49.857Z,36.52
2023-04-01T12:25:49.695Z,32.28
2023-04-01T12:26:49.634Z,30.89
2023-04-01T12:27:51.449Z,33.24
2023-04-01T12:28:49.557Z,45.95
2023-04-01T12:29:49.532Z,42.26
2023-04-01T12:30:49.442Z,37.53
2023-04-01T12:31:49.450Z,33.09
2023-04-01T12:32:49.419Z,33.52
2023-04-01T12:33:49.282Z,36.45
2023-04-01T12:34:49.917Z,32.87
2023-04-01T12:35:49.167Z,31.90
2023-04-01T12:36:51.107Z,33.06
2023-04-01T12:37:49.002Z,34.24